Time;durP1;ratioP1;P1;durP2;ratioP2;P2;SDS_P1;SDS_P2;PMS_P1;PMS_P2;Temp;Humidity;BMP_temperature;BMP_pressure;BME280_temperature;BME280_humidity;BME280_pressure;Samples;Min_cycle;Max_cycle;Signal;HPM_P1;HPM_P2
2021/03/08 00:00:57;;;;;;;24.13;14.40;;;4.00;66.90;;;;;;4999816;28;20412;-64
2021/03/08 00:03:25;;;;;;;24.80;14.77;;;4.00;66.80;;;;;;4996864;28;20026;-64
2021/03/08 00:05:55;;;;;;;21.65;13.88;;;4.00;67.00;;;;;;5005581;28;20456;-64
2021/03/08 00:08:25;;;;;;;23.50;14.05;;;4.00;67.00;;;;;;4998081;28;20042;-65
2021/03/08 00:10:53;;;;;;;25.88;14.80;;;4.00;67.00;;;;;;4995488;28;20045;-64
2021/03/08 00:13:23;;;;;;;25.20;13.57;;;4.00;66.80;;;;;;5003185;28;20125;-64
2021/03/08 00:15:52;;;;;;;22.23;13.55;;;3.90;66.50;;;;;;5001199;28;20034;-64
2021/03/08 00:18:19;;;;;;;24.10;14.00;;;3.90;66.60;;;;;;5001734;28;20686;-64
2021/03/08 00:20:47;;;;;;;22.33;12.93;;;3.90;66.50;;;;;;4996194;28;20070;-64
2021/03/08 00:23:17;;;;;;;20.40;12.30;;;3.90;67.20;;;;;;5005374;28;20105;-64
2021/03/08 00:25:50;;;;;;;24.48;13.18;;;3.80;66.20;;;;;;5002038;28;20030;-64
2021/03/08 00:28:18;;;;;;;20.20;12.18;;;3.80;65.90;;;;;;5000719;28;20113;-64
2021/03/08 00:30:46;;;;;;;21.02;12.85;;;3.70;65.80;;;;;;4999284;28;20034;-64
2021/03/08 00:33:14;;;;;;;18.70;12.18;;;3.70;65.90;;;;;;4999300;28;20030;-64
2021/03/08 00:35:40;;;;;;;20.92;12.70;;;3.60;66.00;;;;;;4996760;28;20034;-64
2021/03/08 00:38:06;;;;;;;18.65;11.82;;;3.60;66.10;;;;;;4999437;28;20577;-66
2021/03/08 00:40:36;;;;;;;18.92;11.32;;;3.60;66.00;;;;;;5001373;28;20030;-64
2021/03/08 00:43:04;;;;;;;21.42;12.50;;;3.60;66.00;;;;;;5001859;28;20033;-64
2021/03/08 00:45:32;;;;;;;21.17;12.73;;;3.60;65.90;;;;;;5015303;28;20041;-64
2021/03/08 00:48:02;;;;;;;22.58;12.15;;;3.50;65.80;;;;;;5000918;28;20038;-64
2021/03/08 00:50:32;;;;;;;21.38;12.73;;;3.50;65.90;;;;;;4999817;28;20042;-64
2021/03/08 00:52:58;;;;;;;23.02;13.40;;;3.50;66.00;;;;;;5000876;28;20041;-64
2021/03/08 00:55:25;;;;;;;22.42;13.10;;;3.40;65.90;;;;;;4996725;28;20041;-65
2021/03/08 00:57:51;;;;;;;24.30;13.25;;;3.40;65.90;;;;;;4999651;28;20042;-64
2021/03/08 01:00:25;;;;;;;23.10;13.18;;;3.30;65.90;;;;;;4997174;28;20041;-64
2021/03/08 01:02:56;;;;;;;22.38;13.18;;;3.20;66.00;;;;;;4999000;28;20034;-64
2021/03/08 01:05:22;;;;;;;23.70;13.27;;;3.20;66.10;;;;;;5001580;28;20026;-65
2021/03/08 01:07:48;;;;;;;23.45;13.43;;;3.10;66.10;;;;;;5001354;28;20113;-64
2021/03/08 01:10:17;;;;;;;23.88;13.55;;;3.10;66.20;;;;;;5001351;28;20042;-64
2021/03/08 01:12:43;;;;;;;24.10;13.95;;;3.00;66.30;;;;;;4998260;28;20034;-64
2021/03/08 01:15:13;;;;;;;23.67;13.70;;;3.00;66.20;;;;;;4999251;28;20145;-64
2021/03/08 01:17:43;;;;;;;26.17;13.98;;;3.00;67.20;;;;;;4999697;28;20073;-64
2021/03/08 01:20:17;;;;;;;23.75;13.88;;;2.90;66.50;;;;;;4998488;28;20066;-66
2021/03/08 01:22:46;;;;;;;26.98;15.25;;;2.90;66.70;;;;;;5000358;28;20030;-64
2021/03/08 01:25:20;;;;;;;25.42;15.15;;;2.80;67.30;;;;;;5006120;28;20042;-63
2021/03/08 01:27:45;;;;;;;24.55;14.20;;;2.80;67.80;;;;;;5015008;28;20129;-64
2021/03/08 01:30:16;;;;;;;29.20;14.73;;;2.70;67.90;;;;;;4999245;28;21055;-65
2021/03/08 01:32:44;;;;;;;25.33;14.75;;;2.70;68.20;;;;;;4998735;28;20041;-63
2021/03/08 01:35:10;;;;;;;25.75;13.88;;;2.70;68.30;;;;;;4996687;28;20095;-64
2021/03/08 01:37:38;;;;;;;22.05;13.60;;;2.70;68.60;;;;;;4998398;28;20038;-64
2021/03/08 01:40:10;;;;;;;22.35;14.07;;;2.70;68.70;;;;;;5000103;28;20153;-65
2021/03/08 01:42:39;;;;;;;25.20;14.75;;;2.60;68.60;;;;;;4998426;28;20038;-64
2021/03/08 01:45:12;;;;;;;26.13;13.90;;;2.70;68.60;;;;;;4997541;28;20034;-64
2021/03/08 01:47:41;;;;;;;24.58;13.52;;;2.70;68.70;;;;;;4998933;28;20045;-64
2021/03/08 01:50:13;;;;;;;26.48;14.20;;;2.60;68.50;;;;;;5003126;28;20065;-64
2021/03/08 01:52:43;;;;;;;26.63;14.48;;;2.70;68.70;;;;;;4996005;28;20069;-64
2021/03/08 01:55:12;;;;;;;25.77;15.05;;;2.60;68.60;;;;;;4999395;28;20030;-64
2021/03/08 01:57:43;;;;;;;23.60;13.70;;;2.60;68.60;;;;;;4998809;28;20166;-64
2021/03/08 02:00:13;;;;;;;24.95;14.68;;;2.60;68.50;;;;;;4997144;28;20038;-64
2021/03/08 02:02:40;;;;;;;26.52;14.98;;;2.50;68.50;;;;;;4995446;28;20031;-64
2021/03/08 02:05:13;;;;;;;27.67;14.98;;;2.50;68.70;;;;;;4999340;28;20030;-64
2021/03/08 02:07:42;;;;;;;24.40;14.45;;;2.50;69.00;;;;;;4998469;28;20532;-64
2021/03/08 02:10:15;;;;;;;26.95;14.57;;;2.40;68.70;;;;;;4999221;28;20034;-63
2021/03/08 02:12:52;;;;;;;24.13;13.95;;;2.40;68.80;;;;;;4997267;28;20190;-64
2021/03/08 02:15:28;;;;;;;27.48;14.55;;;2.40;69.00;;;;;;5000351;28;20212;-65
2021/03/08 02:18:06;;;;;;;22.20;13.55;;;2.40;68.70;;;;;;4999574;28;20093;-65
2021/03/08 02:21:10;;;;;;;23.88;14.13;;;2.40;68.90;;;;;;4996713;28;20511;-64
2021/03/08 02:23:47;;;;;;;25.85;14.38;;;2.40;68.70;;;;;;5014514;28;20048;-64
2021/03/08 02:26:32;;;;;;;24.20;14.20;;;2.30;68.60;;;;;;4996643;28;20057;-64
2021/03/08 02:29:32;;;;;;;27.67;15.10;;;2.30;68.80;;;;;;4997778;28;20026;-64
2021/03/08 02:32:05;;;;;;;27.48;14.93;;;2.30;69.10;;;;;;4997870;28;20064;-64
2021/03/08 02:34:55;;;;;;;25.67;14.63;;;2.30;68.60;;;;;;4996236;28;20050;-64
2021/03/08 02:37:27;;;;;;;25.50;15.27;;;2.20;68.70;;;;;;4995922;28;20037;-64
2021/03/08 02:40:01;;;;;;;27.75;15.30;;;2.20;68.60;;;;;;4999439;28;20031;-65
2021/03/08 02:42:33;;;;;;;24.75;14.90;;;2.10;68.70;;;;;;4999451;28;20033;-65
2021/03/08 02:45:03;;;;;;;27.58;15.27;;;2.10;68.70;;;;;;4998665;28;20084;-64
2021/03/08 02:47:34;;;;;;;24.73;14.98;;;2.00;68.70;;;;;;4997489;28;20042;-65
2021/03/08 02:50:07;;;;;;;27.77;14.48;;;2.00;68.80;;;;;;4999284;28;20030;-65
2021/03/08 02:52:36;;;;;;;24.98;14.23;;;1.90;68.90;;;;;;4998874;28;20037;-65
2021/03/08 02:55:08;;;;;;;24.27;14.32;;;1.90;69.00;;;;;;4998200;28;20076;-64
2021/03/08 02:57:40;;;;;;;25.02;13.48;;;1.90;69.10;;;;;;4998721;28;20117;-64
2021/03/08 03:00:11;;;;;;;25.95;13.15;;;1.80;69.10;;;;;;4997298;28;20042;-65
2021/03/08 03:02:45;;;;;;;24.90;13.95;;;1.80;69.10;;;;;;4997342;28;20026;-64
2021/03/08 03:05:15;;;;;;;28.25;14.15;;;1.80;69.40;;;;;;4998454;28;20378;-65
2021/03/08 03:07:47;;;;;;;24.77;14.15;;;1.70;69.10;;;;;;4996943;28;20521;-64
2021/03/08 03:10:17;;;;;;;26.40;15.05;;;1.70;69.10;;;;;;4998175;28;20052;-65
2021/03/08 03:12:46;;;;;;;25.02;13.90;;;1.70;69.10;;;;;;5001646;28;20038;-64
2021/03/08 03:15:18;;;;;;;24.75;13.27;;;1.70;69.10;;;;;;4995185;28;20034;-64
2021/03/08 03:17:46;;;;;;;23.60;13.93;;;1.70;69.30;;;;;;4996731;28;20038;-64
2021/03/08 03:20:16;;;;;;;25.50;14.45;;;1.70;70.10;;;;;;4999105;28;20033;-65
2021/03/08 03:22:49;;;;;;;27.58;14.23;;;1.70;69.30;;;;;;4996635;28;20042;-65
2021/03/08 03:25:21;;;;;;;26.88;14.85;;;1.70;69.20;;;;;;5000066;28;20058;-64
2021/03/08 03:27:50;;;;;;;27.15;13.77;;;1.70;69.20;;;;;;4996847;28;20509;-65
2021/03/08 03:30:19;;;;;;;25.67;14.20;;;1.70;69.20;;;;;;4996503;28;20493;-65
2021/03/08 03:32:46;;;;;;;23.50;13.60;;;1.60;69.20;;;;;;5003514;28;20093;-65
2021/03/08 03:35:13;;;;;;;24.95;14.57;;;1.60;69.10;;;;;;4996426;28;20406;-63
2021/03/08 03:37:45;;;;;;;28.02;14.57;;;1.60;69.00;;;;;;5013646;28;20034;-65
2021/03/08 03:40:18;;;;;;;25.70;13.52;;;1.60;68.80;;;;;;4998102;28;20030;-65
2021/03/08 03:42:48;;;;;;;25.75;14.05;;;1.60;68.90;;;;;;4997069;28;20034;-65
2021/03/08 03:45:17;;;;;;;24.10;13.93;;;1.60;68.70;;;;;;4995445;28;20022;-64
2021/03/08 03:47:49;;;;;;;28.65;14.77;;;1.60;68.60;;;;;;4996460;28;20029;-65
2021/03/08 03:50:19;;;;;;;26.70;14.55;;;1.60;68.60;;;;;;4996983;28;20042;-65
2021/03/08 03:52:46;;;;;;;29.27;15.20;;;1.60;68.60;;;;;;4996775;28;20041;-65
2021/03/08 03:55:14;;;;;;;25.65;14.18;;;1.60;68.50;;;;;;4992893;28;20037;-65
2021/03/08 03:57:55;;;;;;;27.05;13.70;;;1.60;68.60;;;;;;4999241;28;20196;-63
2021/03/08 04:00:25;;;;;;;26.90;13.38;;;1.60;68.70;;;;;;4993639;28;20038;-65
2021/03/08 04:03:10;;;;;;;27.90;14.70;;;1.50;68.70;;;;;;4997457;28;20042;-65
2021/03/08 04:05:39;;;;;;;27.02;14.35;;;1.50;68.90;;;;;;4997230;28;20057;-65
2021/03/08 04:08:10;;;;;;;30.00;15.65;;;1.50;68.40;;;;;;5013213;28;20053;-65
2021/03/08 04:10:40;;;;;;;25.33;15.07;;;1.40;68.60;;;;;;4998648;28;20508;-64
2021/03/08 04:13:11;;;;;;;26.17;15.02;;;1.40;68.50;;;;;;4996122;28;20045;-65
2021/03/08 04:15:38;;;;;;;24.90;13.88;;;1.30;68.50;;;;;;4990134;28;20133;-65
2021/03/08 04:18:09;;;;;;;25.33;14.27;;;1.30;68.60;;;;;;4995538;28;20038;-64
2021/03/08 04:20:36;;;;;;;23.92;14.13;;;1.30;68.70;;;;;;4996167;28;20583;-64
2021/03/08 04:23:09;;;;;;;26.92;13.95;;;1.20;68.60;;;;;;5003209;28;20037;-65
2021/03/08 04:25:39;;;;;;;23.67;13.77;;;1.20;68.70;;;;;;4996294;28;20030;-65
2021/03/08 04:28:08;;;;;;;25.63;14.50;;;1.20;68.70;;;;;;4995977;28;20050;-65
2021/03/08 04:30:34;;;;;;;28.00;13.65;;;1.20;68.80;;;;;;4995033;28;20038;-65
2021/03/08 04:33:02;;;;;;;26.67;14.82;;;1.20;68.60;;;;;;4994481;28;20436;-65
2021/03/08 04:35:33;;;;;;;27.27;15.10;;;1.10;68.50;;;;;;4997405;28;20046;-64
2021/03/08 04:38:10;;;;;;;33.00;15.27;;;1.10;68.50;;;;;;4997093;28;20046;-64
2021/03/08 04:40:43;;;;;;;25.55;14.52;;;1.10;68.60;;;;;;4995030;28;20037;-65
2021/03/08 04:43:09;;;;;;;25.65;14.82;;;1.10;68.30;;;;;;4996569;28;20030;-64
2021/03/08 04:45:40;;;;;;;30.70;14.95;;;1.00;68.20;;;;;;4996348;28;20038;-65
2021/03/08 04:48:09;;;;;;;27.33;14.55;;;1.00;68.40;;;;;;4996481;28;20031;-65
2021/03/08 04:50:35;;;;;;;28.95;15.27;;;0.90;68.40;;;;;;4996989;28;20038;-65
2021/03/08 04:53:03;;;;;;;28.20;15.07;;;0.90;68.50;;;;;;4995851;28;20133;-65
2021/03/08 04:55:37;;;;;;;24.20;13.93;;;0.80;68.60;;;;;;4999290;28;20049;-65
2021/03/08 04:58:05;;;;;;;25.95;15.00;;;0.80;68.80;;;;;;4995942;28;20136;-65
2021/03/08 05:00:33;;;;;;;27.80;15.15;;;0.80;68.70;;;;;;4998827;28;20088;-64
2021/03/08 05:03:05;;;;;;;28.20;15.40;;;0.80;68.90;;;;;;4997025;28;20093;-64
2021/03/08 05:05:34;;;;;;;28.23;15.45;;;0.80;68.90;;;;;;4996964;28;20045;-64
2021/03/08 05:08:05;;;;;;;29.65;15.02;;;0.80;69.10;;;;;;4995266;28;20076;-64
2021/03/08 05:10:33;;;;;;;30.13;15.65;;;0.70;69.20;;;;;;4994087;28;20530;-64
2021/03/08 05:13:00;;;;;;;28.85;15.20;;;0.70;69.00;;;;;;4997133;28;20038;-64
2021/03/08 05:15:30;;;;;;;29.63;13.98;;;0.70;69.10;;;;;;4998543;28;20053;-63
2021/03/08 05:18:00;;;;;;;25.15;14.20;;;0.60;69.00;;;;;;4999252;28;20046;-64
2021/03/08 05:20:31;;;;;;;28.35;14.95;;;0.60;69.00;;;;;;5001667;28;20045;-65
2021/03/08 05:23:01;;;;;;;25.48;14.63;;;0.60;69.00;;;;;;4999629;28;20450;-64
2021/03/08 05:25:30;;;;;;;26.08;15.13;;;0.60;69.00;;;;;;4997563;28;20026;-64
2021/03/08 05:27:58;;;;;;;25.05;15.20;;;0.60;68.90;;;;;;4995749;28;20038;-64
2021/03/08 05:30:27;;;;;;;26.27;14.55;;;0.60;68.90;;;;;;4996949;28;20034;-65
2021/03/08 05:32:58;;;;;;;26.33;14.60;;;0.50;68.90;;;;;;4993703;28;20030;-65
2021/03/08 05:35:26;;;;;;;27.60;15.48;;;0.50;68.90;;;;;;4996689;28;20118;-65
2021/03/08 05:37:54;;;;;;;24.95;15.00;;;0.50;68.90;;;;;;4998383;28;20157;-65
2021/03/08 05:41:11;;;;;;;27.38;15.00;;;0.50;68.80;;;;;;5004928;28;20022;-64
2021/03/08 05:43:38;;;;;;;30.90;15.82;;;0.50;69.20;;;;;;5000771;28;20642;-64
2021/03/08 05:46:11;;;;;;;32.22;16.80;;;0.50;68.70;;;;;;4999583;28;20041;-65
2021/03/08 05:48:51;;;;;;;29.30;15.88;;;0.50;68.70;;;;;;4999929;28;20038;-65
2021/03/08 05:51:50;;;;;;;32.28;16.17;;;0.40;68.70;;;;;;5000900;28;20064;-65
2021/03/08 05:54:42;;;;;;;28.58;14.85;;;0.40;69.10;;;;;;4999823;28;20386;-65
2021/03/08 05:57:26;;;;;;;32.97;15.07;;;0.30;68.90;;;;;;5005285;28;20038;-65
2021/03/08 06:00:18;;;;;;;28.73;15.43;;;0.30;69.10;;;;;;5000578;28;20031;-65
2021/03/08 06:02:53;;;;;;;26.02;14.90;;;0.30;69.10;;;;;;5000016;28;20104;-65
2021/03/08 06:05:44;;;;;;;27.42;15.27;;;0.20;68.90;;;;;;4999007;28;20080;-65
2021/03/08 06:08:33;;;;;;;28.13;15.25;;;0.20;69.00;;;;;;5000309;28;20076;-65
2021/03/08 06:11:09;;;;;;;26.83;14.82;;;0.10;69.30;;;;;;4998600;28;20042;-65
2021/03/08 06:13:47;;;;;;;28.95;15.57;;;0.10;69.10;;;;;;5001179;28;20062;-65
2021/03/08 06:16:22;;;;;;;32.53;16.42;;;0.10;69.30;;;;;;4999817;28;20042;-65
2021/03/08 06:18:51;;;;;;;30.55;14.82;;;0.10;69.20;;;;;;4999725;28;20132;-65
2021/03/08 06:21:16;;;;;;;32.97;17.67;;;0.00;69.10;;;;;;5001091;28;20034;-65
2021/03/08 06:23:45;;;;;;;39.42;17.10;;;0.00;69.30;;;;;;5005290;28;20041;-65
2021/03/08 06:26:12;;;;;;;33.90;16.83;;;0.10;70.40;;;;;;4999859;28;20116;-65
2021/03/08 06:28:39;;;;;;;28.33;16.35;;;0.10;69.50;;;;;;4998870;28;20501;-65
2021/03/08 06:31:05;;;;;;;32.10;17.20;;;0.00;69.40;;;;;;5000169;28;20041;-65
2021/03/08 06:33:35;;;;;;;30.42;16.63;;;0.10;69.50;;;;;;5000184;28;20026;-65
2021/03/08 06:36:02;;;;;;;32.22;16.90;;;0.10;69.60;;;;;;4999554;28;20974;-65
2021/03/08 06:38:28;;;;;;;38.15;17.90;;;0.00;69.60;;;;;;4997263;28;20132;-65
2021/03/08 06:40:55;;;;;;;30.90;16.77;;;0.10;69.80;;;;;;5005558;28;20042;-65
2021/03/08 06:43:21;;;;;;;34.35;17.80;;;0.10;69.80;;;;;;4999100;28;20038;-65
2021/03/08 06:45:49;;;;;;;37.50;16.73;;;0.10;70.00;;;;;;4998492;28;20394;-65
2021/03/08 06:48:15;;;;;;;35.55;18.38;;;0.10;70.10;;;;;;4999849;28;20581;-65
2021/03/08 06:50:45;;;;;;;28.80;16.27;;;0.20;70.30;;;;;;4999152;28;20141;-65
2021/03/08 06:53:10;;;;;;;34.45;17.00;;;0.20;70.60;;;;;;4998852;28;20038;-65
2021/03/08 06:55:36;;;;;;;28.95;16.50;;;0.30;70.80;;;;;;4998448;28;20468;-65
2021/03/08 06:58:20;;;;;;;29.92;16.55;;;0.30;70.90;;;;;;4999604;28;20045;-65
2021/03/08 07:00:51;;;;;;;32.65;17.15;;;0.40;72.00;;;;;;4997878;28;20408;-65
2021/03/08 07:03:34;;;;;;;28.02;16.33;;;0.40;71.70;;;;;;4999212;28;20037;-65
2021/03/08 07:06:18;;;;;;;31.08;17.58;;;0.50;72.10;;;;;;4999709;28;20034;-65
2021/03/08 07:08:45;;;;;;;28.98;15.27;;;0.50;73.40;;;;;;4997108;28;20576;-64
2021/03/08 07:11:19;;;;;;;28.65;15.38;;;0.50;71.90;;;;;;4996509;28;20464;-65
2021/03/08 07:13:48;;;;;;;30.75;15.40;;;0.50;71.90;;;;;;5006109;28;20037;-65
2021/03/08 07:16:16;;;;;;;29.63;15.63;;;0.60;71.60;;;;;;4997698;28;20058;-65
2021/03/08 07:18:45;;;;;;;27.85;15.15;;;0.70;71.70;;;;;;4998825;28;20041;-65
2021/03/08 07:21:20;;;;;;;29.90;15.90;;;0.70;71.60;;;;;;4999831;28;20039;-64
2021/03/08 07:23:52;;;;;;;31.63;15.90;;;0.80;71.90;;;;;;5003622;28;20138;-65
2021/03/08 07:26:20;;;;;;;25.20;14.88;;;0.80;71.70;;;;;;4998379;28;20038;-65
2021/03/08 07:29:13;;;;;;;30.65;16.48;;;0.90;71.50;;;;;;4998912;28;20149;-65
2021/03/08 07:31:51;;;;;;;32.05;17.98;;;1.00;72.30;;;;;;4999060;28;20030;-64
2021/03/08 07:34:20;;;;;;;28.92;15.55;;;1.00;72.10;;;;;;4999288;28;20038;-65
2021/03/08 07:37:01;;;;;;;30.45;15.68;;;1.00;71.40;;;;;;4998494;28;20046;-65
2021/03/08 07:39:32;;;;;;;29.38;15.93;;;1.10;71.70;;;;;;4998444;28;20034;-65
2021/03/08 07:42:07;;;;;;;31.58;15.90;;;1.10;71.40;;;;;;4999263;28;20041;-65
2021/03/08 07:44:33;;;;;;;31.27;15.18;;;1.20;71.30;;;;;;4998509;28;20061;-64
2021/03/08 07:47:16;;;;;;;29.50;15.60;;;1.30;71.10;;;;;;4998329;28;20112;-65
2021/03/08 07:49:42;;;;;;;27.00;15.60;;;1.30;70.80;;;;;;4999476;28;20489;-65
2021/03/08 07:52:15;;;;;;;24.23;14.32;;;1.40;71.10;;;;;;4999039;28;20048;-65
2021/03/08 07:55:00;;;;;;;25.42;14.20;;;1.40;70.70;;;;;;4999507;28;20055;-64
2021/03/08 07:57:28;;;;;;;;;;;1.50;71.00;;;;;;4997876;28;20157;-65
2021/03/08 07:59:57;;;;;;;25.90;14.15;;;1.60;71.50;;;;;;4998989;28;19917;-64
2021/03/08 08:02:24;;;;;;;26.83;14.25;;;1.60;70.40;;;;;;4989014;28;20035;-65
2021/03/08 08:04:50;;;;;;;26.00;15.07;;;1.70;70.30;;;;;;4998476;28;20050;-65
2021/03/08 08:07:22;;;;;;;25.60;13.95;;;1.70;70.30;;;;;;4998949;28;20065;-64
2021/03/08 08:09:51;;;;;;;22.85;13.70;;;1.80;70.40;;;;;;5002711;28;20084;-64
2021/03/08 08:12:28;;;;;;;23.30;13.60;;;1.90;70.30;;;;;;5002704;28;20027;-64
2021/03/08 08:14:59;;;;;;;23.35;13.98;;;1.90;70.20;;;;;;5000688;28;20460;-64
2021/03/08 08:17:25;;;;;;;26.35;14.30;;;2.00;70.10;;;;;;5002823;28;20035;-64
2021/03/08 08:19:54;;;;;;;24.85;14.55;;;2.00;70.10;;;;;;5002048;28;20038;-64
2021/03/08 08:22:25;;;;;;;23.85;14.70;;;2.10;70.10;;;;;;5000376;28;20038;-64
2021/03/08 08:24:58;;;;;;;24.08;14.48;;;2.10;70.10;;;;;;5001450;28;20026;-64
2021/03/08 08:27:27;;;;;;;25.80;14.18;;;2.20;70.20;;;;;;5000981;28;20057;-64
2021/03/08 08:29:52;;;;;;;25.60;13.98;;;2.30;70.10;;;;;;5018497;28;20517;-64
2021/03/08 08:32:23;;;;;;;26.48;15.00;;;2.30;70.00;;;;;;5002088;28;20030;-64
2021/03/08 08:34:53;;;;;;;29.08;14.80;;;2.40;70.10;;;;;;5007445;28;20037;-65
2021/03/08 08:37:28;;;;;;;24.30;13.55;;;2.40;69.90;;;;;;5000179;28;20030;-65
2021/03/08 08:39:53;;;;;;;24.02;14.90;;;2.50;69.90;;;;;;5002022;28;20145;-64
2021/03/08 08:42:21;;;;;;;22.85;13.07;;;2.60;69.80;;;;;;5002671;28;20113;-64
2021/03/08 08:44:49;;;;;;;19.98;12.88;;;2.70;69.80;;;;;;5001288;28;20027;-65
2021/03/08 08:47:23;;;;;;;20.48;13.25;;;2.70;69.60;;;;;;4999561;28;20038;-64
2021/03/08 08:49:58;;;;;;;19.63;12.80;;;2.80;69.50;;;;;;5002089;28;20031;-64
2021/03/08 08:52:45;;;;;;;20.67;12.48;;;2.90;69.40;;;;;;5001736;28;20527;-65
2021/03/08 08:55:14;;;;;;;19.48;11.85;;;2.90;69.60;;;;;;5000753;28;20073;-64
2021/03/08 08:58:16;;;;;;;19.20;12.68;;;3.00;69.40;;;;;;4999651;28;21105;-64
2021/03/08 09:00:41;;;;;;;21.60;12.50;;;3.10;69.30;;;;;;4999732;28;20413;-64
2021/03/08 09:03:18;;;;;;;21.80;12.90;;;3.30;69.10;;;;;;5008038;28;20034;-63
2021/03/08 09:05:46;;;;;;;17.13;10.90;;;3.40;68.50;;;;;;5016417;28;20072;-63
2021/03/08 09:08:32;;;;;;;18.35;11.38;;;3.40;68.40;;;;;;4999626;28;20038;-64
2021/03/08 09:10:59;;;;;;;16.80;10.93;;;3.60;68.20;;;;;;4999782;28;20062;-64
2021/03/08 09:13:29;;;;;;;16.92;11.75;;;3.60;68.10;;;;;;5001093;28;20084;-63
2021/03/08 09:16:04;;;;;;;17.23;10.90;;;3.70;67.80;;;;;;5001461;28;20030;-64
2021/03/08 09:18:37;;;;;;;15.15;10.60;;;3.80;67.60;;;;;;5001589;28;20030;-63
2021/03/08 09:21:18;;;;;;;17.00;11.23;;;3.90;67.30;;;;;;5002655;28;20026;-64
2021/03/08 09:23:46;;;;;;;17.10;11.35;;;4.10;66.80;;;;;;5002716;28;20030;-64
2021/03/08 09:26:14;;;;;;;16.40;10.50;;;4.10;66.70;;;;;;4999920;28;20027;-64
2021/03/08 09:28:51;;;;;;;15.02;10.68;;;4.20;66.60;;;;;;5001641;28;20072;-61
2021/03/08 09:31:19;;;;;;;15.65;10.65;;;4.30;66.40;;;;;;5001144;28;20035;-63
2021/03/08 09:33:51;;;;;;;14.95;9.77;;;4.30;66.50;;;;;;4999289;28;20037;-64
2021/03/08 09:36:19;;;;;;;16.65;10.20;;;4.40;66.30;;;;;;5001035;28;20073;-64
2021/03/08 09:38:47;;;;;;;14.63;10.43;;;4.50;66.10;;;;;;5001556;28;20375;-64
2021/03/08 09:41:13;;;;;;;14.60;9.68;;;4.60;65.80;;;;;;5001430;28;20034;-64
2021/03/08 09:43:43;;;;;;;16.73;11.18;;;4.70;65.50;;;;;;5000918;28;20034;-64
2021/03/08 09:46:13;;;;;;;15.20;10.80;;;4.80;65.00;;;;;;5005587;28;20026;-64
2021/03/08 09:48:43;;;;;;;18.10;10.55;;;4.80;64.70;;;;;;5000752;28;20230;-66
2021/03/08 09:51:17;;;;;;;25.45;15.02;;;4.90;64.50;;;;;;5001495;28;20524;-64
2021/03/08 09:53:45;;;;;;;17.48;11.15;;;5.00;64.00;;;;;;5000655;28;20153;-65
2021/03/08 09:56:13;;;;;;;16.58;10.52;;;5.10;64.10;;;;;;5001459;28;20390;-64
2021/03/08 09:58:40;;;;;;;14.40;10.05;;;5.10;64.20;;;;;;4999915;28;20034;-64
2021/03/08 10:01:22;;;;;;;15.90;10.40;;;5.20;64.30;;;;;;4998937;28;20046;-64
2021/03/08 10:03:50;;;;;;;14.30;9.77;;;5.20;63.60;;;;;;4999367;28;20026;-64
2021/03/08 10:06:30;;;;;;;14.52;9.73;;;5.30;63.80;;;;;;5001224;28;20504;-63
2021/03/08 10:08:56;;;;;;;14.73;10.40;;;5.30;63.70;;;;;;5000410;28;20113;-64
2021/03/08 10:11:25;;;;;;;16.73;10.40;;;5.40;62.80;;;;;;4998100;28;20041;-64
2021/03/08 10:13:54;;;;;;;13.82;9.32;;;5.50;62.70;;;;;;5000688;28;20037;-64
2021/03/08 10:16:31;;;;;;;16.13;9.25;;;5.50;62.70;;;;;;5005352;28;20026;-65
2021/03/08 10:19:12;;;;;;;11.85;8.95;;;5.60;62.30;;;;;;4998434;28;20046;-65
2021/03/08 10:21:46;;;;;;;11.70;8.32;;;5.70;61.80;;;;;;4999601;28;20026;-64
2021/03/08 10:24:31;;;;;;;14.48;8.18;;;5.80;61.50;;;;;;5000035;28;20117;-65
2021/03/08 10:26:56;;;;;;;12.65;7.95;;;5.80;61.70;;;;;;4999823;28;20038;-64
2021/03/08 10:29:25;;;;;;;12.95;8.52;;;5.90;61.30;;;;;;5000837;28;20034;-65
2021/03/08 10:31:54;;;;;;;10.45;8.23;;;6.00;61.10;;;;;;4998275;28;20039;-65
2021/03/08 10:34:20;;;;;;;12.40;8.13;;;6.00;59.30;;;;;;5000379;28;20405;-65
2021/03/08 10:36:48;;;;;;;13.55;8.43;;;6.10;59.60;;;;;;4998472;28;20136;-62
2021/03/08 10:39:14;;;;;;;11.65;8.30;;;6.10;58.20;;;;;;5000208;28;20045;-65
2021/03/08 10:41:45;;;;;;;11.35;8.02;;;6.20;58.50;;;;;;4999942;28;20037;-64
2021/03/08 10:44:18;;;;;;;10.98;7.70;;;6.20;58.90;;;;;;5000272;28;20042;-64
2021/03/08 10:46:46;;;;;;;11.15;8.15;;;6.30;58.70;;;;;;4999829;28;20065;-65
2021/03/08 10:49:14;;;;;;;10.95;7.38;;;6.30;59.10;;;;;;5000509;28;20057;-64
2021/03/08 10:51:41;;;;;;;13.02;8.73;;;6.40;59.10;;;;;;5000537;28;20034;-65
2021/03/08 10:54:10;;;;;;;12.57;7.82;;;6.50;58.70;;;;;;5000210;28;20111;-65
2021/03/08 10:56:39;;;;;;;10.35;7.80;;;6.60;58.70;;;;;;4997681;28;20037;-65
2021/03/08 10:59:28;;;;;;;12.20;9.27;;;6.60;58.50;;;;;;4998356;28;20153;-65
2021/03/08 11:02:10;;;;;;;13.15;8.38;;;6.70;56.90;;;;;;4999971;28;20057;-64
2021/03/08 11:04:36;;;;;;;14.23;8.73;;;6.80;57.30;;;;;;4998708;28;20496;-65
2021/03/08 11:07:03;;;;;;;10.57;7.47;;;6.80;57.00;;;;;;4996779;28;20524;-65
2021/03/08 11:09:34;;;;;;;11.57;8.95;;;6.80;57.80;;;;;;4998945;28;20085;-65
2021/03/08 11:12:03;;;;;;;15.20;8.70;;;6.90;57.40;;;;;;4995429;28;20456;-65
2021/03/08 11:14:44;;;;;;;11.82;8.68;;;6.90;57.60;;;;;;4999186;28;20058;-65
2021/03/08 11:17:12;;;;;;;12.93;8.77;;;6.90;56.50;;;;;;4999265;28;20032;-65
2021/03/08 11:19:43;;;;;;;12.85;9.68;;;7.00;57.30;;;;;;5000725;28;20026;-65
2021/03/08 11:22:17;;;;;;;13.35;9.27;;;7.00;54.80;;;;;;5014166;28;20121;-65
2021/03/08 11:24:51;;;;;;;12.07;9.15;;;7.10;56.00;;;;;;4998098;28;20469;-65
2021/03/08 11:27:24;;;;;;;11.13;8.43;;;7.10;56.40;;;;;;4998613;28;20034;-64
2021/03/08 11:30:07;;;;;;;11.60;8.32;;;7.10;57.00;;;;;;4998902;28;20063;-65
2021/03/08 11:32:40;;;;;;;11.43;8.57;;;7.20;56.50;;;;;;4998083;28;20030;-65
2021/03/08 11:35:18;;;;;;;14.35;10.10;;;7.20;56.20;;;;;;4998267;28;20048;-65
2021/03/08 11:37:47;;;;;;;12.48;8.68;;;7.30;55.70;;;;;;4998606;28;20590;-65
2021/03/08 11:40:19;;;;;;;12.52;9.07;;;7.40;56.10;;;;;;4999055;28;20037;-65
2021/03/08 11:42:47;;;;;;;12.52;9.38;;;7.40;55.50;;;;;;4999671;28;20041;-65
2021/03/08 11:45:16;;;;;;;12.90;9.30;;;7.40;55.50;;;;;;5003005;28;20030;-65
2021/03/08 11:47:51;;;;;;;11.57;8.57;;;7.50;55.10;;;;;;5003533;28;20034;-65
2021/03/08 11:50:21;;;;;;;11.35;8.20;;;7.50;54.90;;;;;;5003603;28;20039;-65
2021/03/08 11:52:49;;;;;;;14.55;8.73;;;7.50;55.80;;;;;;5004482;28;20039;-66
2021/03/08 11:55:21;;;;;;;11.70;9.10;;;7.60;55.60;;;;;;5004094;28;20049;-66
2021/03/08 11:57:50;;;;;;;12.50;9.55;;;7.60;55.00;;;;;;5002841;28;20039;-65
2021/03/08 12:00:23;;;;;;;11.60;8.77;;;7.70;53.90;;;;;;5003484;28;20501;-65
2021/03/08 12:02:52;;;;;;;11.15;8.70;;;7.70;54.00;;;;;;5003114;28;20033;-65
2021/03/08 12:05:21;;;;;;;12.60;8.85;;;7.70;53.90;;;;;;5001718;28;20089;-65
2021/03/08 12:07:49;;;;;;;12.52;8.55;;;7.70;55.00;;;;;;5002604;28;20034;-65
2021/03/08 12:10:15;;;;;;;13.65;8.63;;;7.80;53.70;;;;;;5007541;28;20030;-63
2021/03/08 12:12:45;;;;;;;14.05;9.38;;;7.80;54.70;;;;;;5004742;28;20056;-64
2021/03/08 12:15:13;;;;;;;15.52;9.30;;;7.90;53.90;;;;;;5008972;28;20038;-65
2021/03/08 12:17:39;;;;;;;11.30;8.82;;;7.90;53.80;;;;;;5002228;28;20034;-65
2021/03/08 12:20:10;;;;;;;12.10;9.02;;;8.00;54.30;;;;;;5002074;28;20562;-65
2021/03/08 12:22:39;;;;;;;14.27;9.18;;;8.00;52.90;;;;;;5002818;28;20540;-65
2021/03/08 12:25:08;;;;;;;12.05;8.75;;;8.00;53.20;;;;;;5002724;28;20034;-65
2021/03/08 12:27:40;;;;;;;10.65;8.02;;;8.00;53.10;;;;;;5002818;28;20038;-65
2021/03/08 12:30:12;;;;;;;10.68;7.90;;;8.00;52.90;;;;;;5002818;28;20034;-65
2021/03/08 12:32:42;;;;;;;10.75;8.18;;;8.00;52.90;;;;;;5002802;28;20030;-65
2021/03/08 12:35:11;;;;;;;15.52;8.07;;;8.10;53.40;;;;;;5003178;28;20085;-65
2021/03/08 12:37:39;;;;;;;9.73;7.93;;;8.10;53.80;;;;;;5008079;28;20132;-65
2021/03/08 12:40:05;;;;;;;12.25;8.48;;;8.10;53.40;;;;;;5002224;28;20076;-65
2021/03/08 12:42:33;;;;;;;11.43;8.68;;;8.10;53.00;;;;;;5001641;28;20026;-65
2021/03/08 12:44:58;;;;;;;10.43;7.95;;;8.20;52.20;;;;;;5006093;28;20374;-65
2021/03/08 12:47:26;;;;;;;11.60;8.45;;;8.20;53.20;;;;;;5002591;28;20080;-66
2021/03/08 12:49:52;;;;;;;10.02;7.80;;;8.20;53.20;;;;;;5003131;28;20547;-65
2021/03/08 12:52:17;;;;;;;10.40;8.48;;;8.20;53.00;;;;;;5001353;28;20085;-65
2021/03/08 12:54:43;;;;;;;10.35;8.55;;;8.20;52.90;;;;;;5001547;28;20050;-63
2021/03/08 12:57:13;;;;;;;9.65;8.20;;;8.20;51.10;;;;;;5002139;28;20030;-65
2021/03/08 12:59:41;;;;;;;9.75;7.82;;;8.30;51.00;;;;;;5002156;28;20033;-65
2021/03/08 13:02:07;;;;;;;11.40;8.32;;;8.30;51.80;;;;;;5001271;28;20437;-65